createdAt,value
2022-11-24T00:01:33.143Z,98594.09
2022-11-24T00:03:34.940Z,98596.88
2022-11-24T00:05:38.384Z,98602.22
2022-11-24T00:07:39.845Z,98601.66
2022-11-24T00:09:41.348Z,98613.88
2022-11-24T00:11:42.796Z,98614.03
2022-11-24T00:13:44.760Z,98615.84
2022-11-24T00:15:46.180Z,98610.94
2022-11-24T00:17:47.696Z,98607.84
2022-11-24T00:19:49.117Z,98609.66
2022-11-24T00:21:50.549Z,98611.03
2022-11-24T00:23:52.359Z,98616.06
2022-11-24T00:25:53.814Z,98618.56
2022-11-24T00:27:55.199Z,98611.75
2022-11-24T00:29:57.601Z,98608.19
2022-11-24T00:31:59.127Z,98617.88
2022-11-24T00:34:03.684Z,98612.53
2022-11-24T00:36:05.444Z,98612.75
2022-11-24T00:38:06.879Z,98614.00
2022-11-24T00:40:08.747Z,98618.09
2022-11-24T00:42:10.209Z,98622.34
2022-11-24T00:44:11.656Z,98624.38
2022-11-24T00:46:13.477Z,98626.91
2022-11-24T00:48:15.376Z,98620.84
2022-11-24T00:50:16.869Z,98621.84
2022-11-24T00:52:18.275Z,98623.22
2022-11-24T00:54:19.757Z,98623.56
2022-11-24T00:56:21.248Z,98626.19
2022-11-24T00:58:23.982Z,98622.22
2022-11-24T01:00:26.363Z,98620.84
2022-11-24T01:02:27.816Z,98627.78
2022-11-24T01:04:29.212Z,98632.81
2022-11-24T01:06:32.312Z,98636.72
2022-11-24T01:08:34.363Z,98633.19
2022-11-24T01:10:36.058Z,98640.72
2022-11-24T01:12:37.556Z,98646.19
2022-11-24T01:14:39.208Z,98648.91
2022-11-24T01:16:40.621Z,98647.53
2022-11-24T01:18:42.382Z,98642.94
2022-11-24T01:20:43.804Z,98641.78
2022-11-24T01:22:48.339Z,98641.88
2022-11-24T01:24:49.771Z,98648.50
2022-11-24T01:26:51.437Z,98651.31
2022-11-24T01:28:55.000Z,98650.75
2022-11-24T01:30:58.128Z,98650.31
2022-11-24T01:32:59.627Z,98654.31
2022-11-24T01:35:01.046Z,98653.81
2022-11-24T01:37:02.463Z,98659.06
2022-11-24T01:39:03.995Z,98657.25
2022-11-24T01:41:14.159Z,98657.59
2022-11-24T01:43:21.253Z,98662.53
2022-11-24T01:45:41.945Z,98657.94
2022-11-24T01:47:43.501Z,98666.06
2022-11-24T01:49:48.686Z,98656.13
2022-11-24T01:52:13.066Z,98667.00
2022-11-24T01:54:20.181Z,98664.00
2022-11-24T01:56:21.700Z,98660.00
2022-11-24T01:58:27.648Z,98664.47
2022-11-24T02:00:29.191Z,98672.28
2022-11-24T02:02:30.817Z,98664.19
2022-11-24T02:04:34.496Z,98666.47
2022-11-24T02:06:38.591Z,98668.94
2022-11-24T02:08:57.221Z,98669.28
2022-11-24T02:11:00.829Z,98676.97
2022-11-24T02:13:03.380Z,98681.06
2022-11-24T02:15:05.328Z,98678.19
2022-11-24T02:17:06.888Z,98684.25
2022-11-24T02:19:22.055Z,98684.59
2022-11-24T02:21:23.732Z,98680.44
2022-11-24T02:23:39.639Z,98683.41
2022-11-24T02:25:47.076Z,98680.72
2022-11-24T02:27:53.653Z,98679.91
2022-11-24T02:29:55.629Z,98688.72
2022-11-24T02:32:01.257Z,98685.88
2022-11-24T02:34:02.753Z,98685.47
2022-11-24T02:36:04.286Z,98677.06
2022-11-24T02:38:06.070Z,98694.13
2022-11-24T02:40:09.934Z,98684.38
2022-11-24T02:42:13.606Z,98680.03
2022-11-24T02:44:17.464Z,98686.53
2022-11-24T02:46:18.949Z,98690.19
2022-11-24T02:48:20.508Z,98691.34
2022-11-24T02:50:21.917Z,98689.97
2022-11-24T02:52:23.350Z,98696.81
2022-11-24T02:54:24.811Z,98699.59
2022-11-24T02:56:27.183Z,98706.22
2022-11-24T02:58:28.671Z,98703.72
2022-11-24T03:00:30.353Z,98699.84
2022-11-24T03:02:32.107Z,98709.91
2022-11-24T03:04:33.937Z,98705.22
2022-11-24T03:06:35.700Z,98700.31
2022-11-24T03:08:37.084Z,98711.84
2022-11-24T03:10:39.000Z,98705.34
2022-11-24T03:12:40.448Z,98709.72
2022-11-24T03:14:41.869Z,98710.88
2022-11-24T03:16:43.309Z,98708.34
2022-11-24T03:18:44.743Z,98721.94
2022-11-24T03:20:46.172Z,98712.25
2022-11-24T03:22:47.748Z,98722.09
2022-11-24T03:24:49.212Z,98723.66
2022-11-24T03:27:15.962Z,98725.16
2022-11-24T03:29:17.412Z,98716.56
2022-11-24T03:31:18.885Z,98720.44
2022-11-24T03:33:20.340Z,98721.91
2022-11-24T03:35:22.163Z,98721.81
2022-11-24T03:37:23.912Z,98720.75
2022-11-24T03:39:25.455Z,98726.81
2022-11-24T03:41:26.863Z,98728.91
2022-11-24T03:43:28.384Z,98728.31
2022-11-24T03:45:45.318Z,98720.88
2022-11-24T03:47:51.526Z,98719.50
2022-11-24T03:49:52.926Z,98724.50
2022-11-24T03:51:54.355Z,98727.94
2022-11-24T03:53:55.735Z,98726.78
2022-11-24T03:55:57.721Z,98721.31
2022-11-24T03:57:59.149Z,98729.56
2022-11-24T04:00:00.533Z,98731.16
2022-11-24T04:02:02.057Z,98731.97
2022-11-24T04:04:06.006Z,98729.34
2022-11-24T04:06:07.418Z,98734.81
2022-11-24T04:08:09.306Z,98740.63
2022-11-24T04:10:10.785Z,98736.88
2022-11-24T04:12:31.124Z,98740.84
2022-11-24T04:14:32.940Z,98746.53
2022-11-24T04:16:34.643Z,98744.72
2022-11-24T04:18:36.034Z,98756.84
2022-11-24T04:20:37.533Z,98755.59
2022-11-24T04:22:39.709Z,98754.47
2022-11-24T04:24:41.150Z,98759.28
2022-11-24T04:26:42.535Z,98754.94
2022-11-24T04:28:43.891Z,98756.09
2022-11-24T04:30:45.482Z,98748.22
2022-11-24T04:32:47.286Z,98753.25
2022-11-24T04:34:48.653Z,98755.88
2022-11-24T04:36:49.993Z,98766.16
2022-11-24T04:39:23.941Z,98763.13
2022-11-24T04:41:15.187Z,98767.47
2022-11-24T04:43:18.607Z,98765.66
2022-11-24T04:45:19.970Z,98774.44
2022-11-24T04:47:24.281Z,98777.44
2022-11-24T04:49:25.627Z,98774.59
2022-11-24T04:51:27.239Z,98781.69
2022-11-24T04:53:28.593Z,98783.84
2022-11-24T04:55:29.983Z,98789.34
2022-11-24T04:57:31.355Z,98793.56
2022-11-24T04:59:32.778Z,98798.63
2022-11-24T05:01:34.298Z,98802.63
2022-11-24T05:03:36.764Z,98802.63
2022-11-24T05:05:38.119Z,98805.03
2022-11-24T05:07:39.705Z,98809.50
2022-11-24T05:10:00.004Z,98806.06
2022-11-24T05:12:01.418Z,98812.91
2022-11-24T05:14:02.889Z,98815.56
2022-11-24T05:16:04.712Z,98813.13
2022-11-24T05:18:08.373Z,98819.41
2022-11-24T05:20:09.892Z,98825.28
2022-11-24T05:22:11.243Z,98823.44
2022-11-24T05:24:12.707Z,98829.50
2022-11-24T05:26:14.314Z,98824.25
2022-11-24T05:28:16.120Z,98825.03
2022-11-24T05:30:17.562Z,98837.97
2022-11-24T05:32:18.995Z,98833.72
2022-11-24T05:34:20.345Z,98832.16
2022-11-24T05:36:40.194Z,98842.22
2022-11-24T05:38:41.720Z,98849.50
2022-11-24T05:40:43.382Z,98850.56
2022-11-24T05:42:47.843Z,98845.88
2022-11-24T05:44:49.687Z,98850.91
2022-11-24T05:46:51.971Z,98850.09
2022-11-24T05:48:53.408Z,98844.84
2022-11-24T05:50:58.341Z,98854.31
2022-11-24T05:53:08.175Z,98853.53
2022-11-24T05:55:10.802Z,98865.44
2022-11-24T05:57:13.081Z,98861.78
2022-11-24T05:59:14.411Z,98865.44
2022-11-24T06:01:15.773Z,98866.69
2022-11-24T06:03:17.199Z,98859.59
2022-11-24T06:05:18.625Z,98865.09
2022-11-24T06:07:20.115Z,98866.34
2022-11-24T06:09:21.544Z,98870.09
2022-11-24T06:11:22.971Z,98865.91
2022-11-24T06:13:24.349Z,98866.09
2022-11-24T06:15:26.001Z,98871.38
2022-11-24T06:17:27.872Z,98876.97
2022-11-24T06:19:29.232Z,98879.84
2022-11-24T06:21:30.846Z,98879.63
2022-11-24T06:23:32.491Z,98881.44
2022-11-24T06:25:33.885Z,98881.69
2022-11-24T06:27:35.817Z,98885.13
2022-11-24T06:29:37.176Z,98891.50
2022-11-24T06:31:40.374Z,98888.66
2022-11-24T06:33:41.922Z,98899.41
2022-11-24T06:35:43.282Z,98898.63
2022-11-24T06:37:45.830Z,98897.56
2022-11-24T06:39:47.253Z,98901.00
2022-11-24T06:41:52.397Z,98901.00
2022-11-24T06:43:54.068Z,98904.25
2022-11-24T06:45:56.320Z,98904.81
2022-11-24T06:47:57.735Z,98903.78
2022-11-24T06:49:59.449Z,98909.06
2022-11-24T06:52:00.838Z,98913.50
2022-11-24T06:54:02.365Z,98910.31
2022-11-24T06:56:15.215Z,98914.88
2022-11-24T06:58:17.445Z,98917.31
2022-11-24T07:00:19.152Z,98919.13
2022-11-24T07:02:20.552Z,98919.34
2022-11-24T07:04:21.921Z,98916.59
2022-11-24T07:06:25.208Z,98921.63
2022-11-24T07:08:28.190Z,98934.41
2022-11-24T07:10:29.621Z,98935.81
2022-11-24T07:12:35.063Z,98942.25
2022-11-24T07:14:36.820Z,98946.25
2022-11-24T07:16:38.983Z,98950.13
2022-11-24T07:18:40.498Z,98949.34
2022-11-24T07:20:41.892Z,98953.91
2022-11-24T07:22:43.235Z,98949.59
2022-11-24T07:24:44.578Z,98948.44
2022-11-24T07:26:45.965Z,98951.88
2022-11-24T07:28:47.674Z,98954.06
2022-11-24T07:30:49.108Z,98956.13
2022-11-24T07:32:50.644Z,98955.88
2022-11-24T07:34:52.000Z,98955.06
2022-11-24T07:36:53.444Z,98964.78
2022-11-24T07:38:54.857Z,98975.09
2022-11-24T07:41:03.667Z,98966.75
2022-11-24T07:43:05.062Z,98972.38
2022-11-24T07:45:07.000Z,98968.81
2022-11-24T07:47:08.367Z,98984.84
2022-11-24T07:49:09.711Z,98980.81
2022-11-24T07:51:11.169Z,98982.66
2022-11-24T07:53:12.538Z,98993.53
2022-11-24T07:55:14.109Z,98996.31
2022-11-24T07:57:15.645Z,99012.88
2022-11-24T07:59:17.011Z,99009.03
2022-11-24T08:01:18.840Z,99014.66
2022-11-24T08:03:20.346Z,99013.03
2022-11-24T08:05:21.781Z,99019.09
2022-11-24T08:07:23.409Z,99022.66
2022-11-24T08:09:24.799Z,99025.91
2022-11-24T08:11:26.342Z,99027.72
2022-11-24T08:13:27.695Z,99026.69
2022-11-24T08:15:29.069Z,99034.00
2022-11-24T08:17:30.524Z,99030.72
2022-11-24T08:19:32.346Z,99034.16
2022-11-24T08:21:33.751Z,99032.91
2022-11-24T08:23:35.226Z,99041.41
2022-11-24T08:25:36.965Z,99048.25
2022-11-24T08:27:40.006Z,99044.22
2022-11-24T08:29:42.092Z,99047.88
2022-11-24T08:31:43.634Z,99052.50
2022-11-24T08:33:45.088Z,99050.47
2022-11-24T08:35:46.498Z,99053.44
2022-11-24T08:37:47.886Z,99060.53
2022-11-24T08:39:49.262Z,99061.09
2022-11-24T08:41:50.659Z,99060.09
2022-11-24T08:43:52.097Z,99057.47
2022-11-24T08:45:53.748Z,99060.66
2022-11-24T08:47:56.558Z,99061.25
2022-11-24T08:49:58.000Z,99062.84
2022-11-24T08:51:59.427Z,99083.69
2022-11-24T08:54:01.955Z,99071.91
2022-11-24T08:56:04.143Z,99072.16
2022-11-24T08:58:05.496Z,99083.63
2022-11-24T09:00:07.589Z,99086.06
2022-11-24T09:02:13.164Z,99094.19
2022-11-24T09:04:40.563Z,99088.69
2022-11-24T09:06:41.994Z,99099.00
2022-11-24T09:08:43.350Z,99097.53
2022-11-24T09:10:44.726Z,99102.22
2022-11-24T09:12:47.074Z,99105.88
2022-11-24T09:14:48.451Z,99104.41
2022-11-24T09:16:49.893Z,99108.13
2022-11-24T09:18:59.907Z,99113.53
2022-11-24T09:21:08.505Z,99114.41
2022-11-24T09:23:09.881Z,99115.22
2022-11-24T09:25:11.269Z,99120.38
2022-11-24T09:27:12.670Z,99123.66
2022-11-24T09:29:14.294Z,99135.44
2022-11-24T09:31:18.782Z,99129.59
2022-11-24T09:33:20.181Z,99136.91
2022-11-24T09:35:21.592Z,99143.94
2022-11-24T09:37:25.899Z,99145.59
2022-11-24T09:39:29.524Z,99149.19
2022-11-24T09:41:45.944Z,99159.72
2022-11-24T09:44:08.634Z,99156.59
2022-11-24T09:46:47.273Z,99161.56
2022-11-24T09:48:54.829Z,99165.00
2022-11-24T09:51:01.321Z,99168.72
2022-11-24T09:53:17.012Z,99165.28
2022-11-24T09:55:29.284Z,99160.38
2022-11-24T09:57:37.746Z,99165.63
2022-11-24T09:59:41.613Z,99171.13
2022-11-24T10:01:45.173Z,99167.47
2022-11-24T10:03:51.311Z,99170.91
2022-11-24T10:05:53.344Z,99173.19
2022-11-24T10:08:21.194Z,99178.97
2022-11-24T10:10:48.569Z,99180.69
2022-11-24T10:12:55.452Z,99180.97
2022-11-24T10:15:15.747Z,99176.84
2022-11-24T10:18:16.408Z,99193.03
2022-11-24T10:20:27.132Z,99189.28
2022-11-24T10:23:03.675Z,99194.50
2022-11-24T10:25:30.626Z,99193.94
2022-11-24T10:27:40.062Z,99198.59
2022-11-24T10:29:42.977Z,99206.44
2022-11-24T10:31:45.907Z,99207.97
2022-11-24T10:33:48.027Z,99206.56
2022-11-24T10:35:52.619Z,99206.03
2022-11-24T10:38:02.145Z,99204.44
2022-11-24T10:40:26.899Z,99206.91
2022-11-24T10:42:38.536Z,99203.63
2022-11-24T10:44:41.939Z,99213.50
2022-11-24T10:46:43.667Z,99206.47
2022-11-24T10:48:52.981Z,99212.91
2022-11-24T10:51:24.522Z,99221.41
2022-11-24T10:53:30.125Z,99221.88
2022-11-24T10:55:54.867Z,99232.53
2022-11-24T10:58:15.131Z,99231.59
2022-11-24T11:00:19.709Z,99232.53
2022-11-24T11:02:37.320Z,99237.25
2022-11-24T11:04:38.741Z,99237.94
2022-11-24T11:06:40.460Z,99242.41
2022-11-24T11:08:41.858Z,99240.22
2022-11-24T11:10:44.849Z,99240.94
2022-11-24T11:12:46.581Z,99250.72
2022-11-24T11:14:48.369Z,99245.22
2022-11-24T11:16:53.268Z,99246.97
2022-11-24T11:18:54.816Z,99243.44
2022-11-24T11:20:58.140Z,99246.31
2022-11-24T11:23:13.197Z,99246.22
2022-11-24T11:25:18.626Z,99251.13
2022-11-24T11:27:23.474Z,99250.78
2022-11-24T11:34:41.632Z,99249.72
2022-11-24T11:36:49.298Z,99251.88
2022-11-24T11:38:50.747Z,99262.22
2022-11-24T11:40:52.349Z,99265.31
2022-11-24T11:43:06.762Z,99268.78
2022-11-24T11:45:16.247Z,99267.75
2022-11-24T11:47:22.563Z,99269.22
2022-11-24T11:49:24.464Z,99262.13
2022-11-24T11:51:32.047Z,99276.38
2022-11-24T11:53:46.364Z,99277.88
2022-11-24T11:56:17.043Z,99273.19
2022-11-24T11:58:44.813Z,99271.53
2022-11-24T12:01:15.267Z,99280.38
2022-11-24T12:03:26.616Z,99274.41
2022-11-24T12:05:34.749Z,99270.84
2022-11-24T12:07:53.783Z,99276.56
2022-11-24T12:10:04.080Z,99281.50
2022-11-24T12:12:45.149Z,99273.84
2022-11-24T12:15:34.120Z,99286.34
2022-11-24T12:17:46.861Z,99279.09
2022-11-24T12:19:57.391Z,99279.00
2022-11-24T12:22:17.526Z,99284.03
2022-11-24T12:24:35.110Z,99284.84
2022-11-24T12:26:48.451Z,99283.41
2022-11-24T12:29:04.859Z,99283.06
2022-11-24T12:31:08.453Z,99279.91
2022-11-24T12:33:30.123Z,99288.06
2022-11-24T12:35:46.164Z,99279.13
2022-11-24T12:38:09.168Z,99281.09
2022-11-24T12:40:40.895Z,99278.31
2022-11-24T12:43:16.626Z,99290.03
2022-11-24T12:45:28.330Z,99283.47
2022-11-24T12:47:56.207Z,99288.44
2022-11-24T12:50:02.723Z,99291.44
2022-11-24T12:52:23.173Z,99293.97
2022-11-24T12:54:25.644Z,99289.13
2022-11-24T12:56:38.085Z,99290.13
2022-11-24T12:58:50.601Z,99293.72
2022-11-24T13:01:18.435Z,99288.28
2022-11-24T13:03:43.443Z,99286.34
2022-11-24T13:06:00.772Z,99293.63
2022-11-24T13:08:04.444Z,99289.88
2022-11-24T13:10:53.620Z,99292.84
2022-11-24T13:13:37.056Z,99283.34
2022-11-24T13:18:46.647Z,99294.94
2022-11-24T13:20:48.161Z,99289.44
2022-11-24T13:23:03.842Z,99285.53
2022-11-24T13:25:46.356Z,99285.31
2022-11-24T13:27:53.496Z,99287.28
2022-11-24T13:29:55.270Z,99286.22
2022-11-24T13:32:02.322Z,99279.34
2022-11-24T13:34:38.624Z,99285.41
2022-11-24T13:36:53.123Z,99282.94
2022-11-24T13:38:54.651Z,99286.50
2022-11-24T13:41:13.386Z,99284.91
2022-11-24T13:43:17.388Z,99283.97
2022-11-24T13:45:44.917Z,99294.66
2022-11-24T13:47:46.852Z,99290.63
2022-11-24T13:49:50.103Z,99291.88
2022-11-24T13:52:35.992Z,99296.16
2022-11-24T13:54:41.457Z,99290.94
2022-11-24T13:56:42.917Z,99301.72
2022-11-24T13:58:57.867Z,99291.63
2022-11-24T14:01:02.064Z,99300.47
2022-11-24T14:03:06.693Z,99292.31
2022-11-24T14:05:14.130Z,99309.22
2022-11-24T14:07:16.785Z,99313.44
2022-11-24T14:09:35.141Z,99312.63
2022-11-24T14:11:36.773Z,99314.94
2022-11-24T14:13:38.221Z,99310.22
2022-11-24T14:15:39.820Z,99309.66
2022-11-24T14:17:41.438Z,99304.59
2022-11-24T14:19:48.132Z,99308.50
2022-11-24T14:21:49.624Z,99312.25
2022-11-24T14:24:03.343Z,99316.97
2022-11-24T14:26:04.829Z,99313.28
2022-11-24T14:28:22.291Z,99312.00
2022-11-24T14:30:25.176Z,99316.47
2022-11-24T14:32:27.458Z,99313.03
2022-11-24T14:34:35.672Z,99316.78
2022-11-24T14:36:38.235Z,99315.63
2022-11-24T14:38:39.624Z,99319.69
2022-11-24T14:40:50.582Z,99328.25
2022-11-24T14:42:52.004Z,99322.84
2022-11-24T14:44:59.374Z,99322.84
2022-11-24T14:47:06.896Z,99331.56
2022-11-24T14:49:08.994Z,99326.16
2022-11-24T14:51:10.335Z,99329.13
2022-11-24T14:53:15.336Z,99333.31
2022-11-24T14:55:29.308Z,99333.38
2022-11-24T14:57:36.242Z,99334.63
2022-11-24T14:59:38.202Z,99339.19
2022-11-24T15:01:39.837Z,99330.19
2022-11-24T15:03:41.299Z,99332.75
2022-11-24T15:05:55.691Z,99334.09
2022-11-24T15:08:02.934Z,99322.88
2022-11-24T15:10:06.886Z,99331.53
2022-11-24T15:12:19.595Z,99334.28
2022-11-24T15:14:44.057Z,99333.97
2022-11-24T15:16:45.617Z,99338.94
2022-11-24T15:18:48.924Z,99346.28
2022-11-24T15:20:50.357Z,99349.16
2022-11-24T15:23:23.741Z,99337.88
2022-11-24T15:25:33.887Z,99349.97
2022-11-24T15:27:35.250Z,99346.53
2022-11-24T15:29:36.621Z,99349.03
2022-11-24T15:31:45.135Z,99348.47
2022-11-24T15:33:49.217Z,99350.34
2022-11-24T15:35:50.612Z,99351.59
2022-11-24T15:37:52.307Z,99350.63
2022-11-24T15:39:53.651Z,99347.81
2022-11-24T15:41:55.006Z,99350.72
2022-11-24T15:43:59.268Z,99351.34
2022-11-24T15:46:01.963Z,99343.66
2022-11-24T15:48:03.400Z,99350.19
2022-11-24T15:50:05.447Z,99353.22
2022-11-24T15:52:07.012Z,99358.31
2022-11-24T15:54:13.575Z,99359.97
2022-11-24T15:56:23.232Z,99365.41
2022-11-24T15:58:25.040Z,99364.44
2022-11-24T16:00:26.453Z,99369.69
2022-11-24T16:02:28.572Z,99370.91
2022-11-24T16:04:30.115Z,99379.22
2022-11-24T16:06:31.720Z,99369.31
2022-11-24T16:08:33.153Z,99376.00
2022-11-24T16:10:36.482Z,99385.31
2022-11-24T16:12:37.878Z,99383.72
2022-11-24T16:14:39.489Z,99388.97
2022-11-24T16:16:41.360Z,99387.78
2022-11-24T16:18:44.988Z,99383.94
2022-11-24T16:20:46.413Z,99382.13
2022-11-24T16:22:48.028Z,99388.59
2022-11-24T16:24:49.453Z,99389.00
2022-11-24T16:26:50.857Z,99386.38
2022-11-24T16:28:52.416Z,99387.00
2022-11-24T16:30:53.762Z,99395.28
2022-11-24T16:32:55.269Z,99391.44
2022-11-24T16:34:56.869Z,99384.16
2022-11-24T16:36:58.409Z,99392.25
2022-11-24T16:39:00.336Z,99395.09
2022-11-24T16:43:28.964Z,99395.28
2022-11-24T16:45:30.384Z,99397.31
2022-11-24T16:47:31.870Z,99402.97
2022-11-24T16:49:33.268Z,99407.41
2022-11-24T16:51:35.387Z,99401.34
2022-11-24T16:53:37.408Z,99403.16
2022-11-24T16:55:38.748Z,99404.78
2022-11-24T16:57:40.130Z,99396.91
2022-11-24T16:59:43.267Z,99395.69
2022-11-24T17:01:46.592Z,99391.66
2022-11-24T17:03:48.281Z,99396.28
2022-11-24T17:06:02.214Z,99396.09
2022-11-24T17:08:03.634Z,99393.88
2022-11-24T17:10:06.839Z,99396.47
2022-11-24T17:12:08.284Z,99399.91
2022-11-24T17:14:10.689Z,99399.91
2022-11-24T17:16:15.554Z,99395.06
2022-11-24T17:18:24.373Z,99389.63
2022-11-24T17:20:26.510Z,99393.66
2022-11-24T17:22:27.925Z,99394.66
2022-11-24T17:24:29.389Z,99396.06
2022-11-24T17:26:31.846Z,99405.56
2022-11-24T17:28:34.479Z,99412.03
2022-11-24T17:30:36.893Z,99398.50
2022-11-24T17:32:38.305Z,99398.72
2022-11-24T17:34:39.716Z,99408.00
2022-11-24T17:36:41.933Z,99415.28
2022-11-24T17:38:43.397Z,99408.63
2022-11-24T17:40:48.227Z,99412.44
2022-11-24T17:42:49.653Z,99406.81
2022-11-24T17:45:16.287Z,99408.63
2022-11-24T17:47:17.985Z,99401.75
2022-11-24T17:49:21.029Z,99406.00
2022-11-24T17:51:24.519Z,99401.97
2022-11-24T17:53:26.517Z,99399.13
2022-11-24T17:55:27.930Z,99397.13
2022-11-24T17:57:29.419Z,99410.44
2022-11-24T17:59:30.786Z,99412.47
2022-11-24T18:01:33.058Z,99416.91
2022-11-24T18:03:34.786Z,99419.53
2022-11-24T18:05:36.844Z,99420.94
2022-11-24T18:07:38.294Z,99424.38
2022-11-24T18:09:39.674Z,99428.41
2022-11-24T18:11:41.057Z,99423.75
2022-11-24T18:14:01.028Z,99428.00
2022-11-24T18:16:05.373Z,99427.19
2022-11-24T18:18:06.785Z,99416.91
2022-11-24T18:20:08.593Z,99424.38
2022-11-24T18:22:10.028Z,99422.16
2022-11-24T18:24:12.888Z,99419.13
2022-11-24T18:26:15.905Z,99423.75
2022-11-24T18:28:17.273Z,99423.97
2022-11-24T18:30:18.656Z,99414.69
2022-11-24T18:32:20.083Z,99422.97
2022-11-24T18:34:24.585Z,99417.31
2022-11-24T18:36:30.388Z,99422.97
2022-11-24T18:38:32.684Z,99422.34
2022-11-24T18:40:38.688Z,99426.19
2022-11-24T18:42:40.108Z,99431.44
2022-11-24T18:44:42.316Z,99436.47
2022-11-24T18:46:43.758Z,99435.06
2022-11-24T18:48:45.735Z,99432.25
2022-11-24T18:50:51.970Z,99436.06
2022-11-24T18:52:53.395Z,99430.22
2022-11-24T18:54:54.801Z,99436.06
2022-11-24T18:57:00.292Z,99442.75
2022-11-24T18:59:04.397Z,99441.53
2022-11-24T19:01:17.335Z,99445.56
2022-11-24T19:03:18.778Z,99447.78
2022-11-24T19:05:20.493Z,99448.41
2022-11-24T19:07:22.092Z,99447.19
2022-11-24T19:09:25.359Z,99453.66
2022-11-24T19:11:29.423Z,99448.59
2022-11-24T19:13:30.796Z,99449.59
2022-11-24T19:15:35.361Z,99445.16
2022-11-24T19:17:36.757Z,99444.16
2022-11-24T19:19:39.600Z,99451.22
2022-11-24T19:21:41.263Z,99456.28
2022-11-24T19:23:42.668Z,99448.81
2022-11-24T19:25:44.685Z,99459.09
2022-11-24T19:27:46.050Z,99458.69
2022-11-24T19:29:47.974Z,99442.94
2022-11-24T19:31:49.433Z,99446.16
2022-11-24T19:33:56.504Z,99442.53
2022-11-24T19:36:05.370Z,99433.44
2022-11-24T19:38:06.763Z,99443.94
2022-11-24T19:40:08.981Z,99445.75
2022-11-24T19:42:10.329Z,99444.34
2022-11-24T19:44:12.344Z,99447.97
2022-11-24T19:46:18.333Z,99439.50
2022-11-24T19:48:19.870Z,99440.72
2022-11-24T19:50:21.300Z,99445.34
2022-11-24T19:52:23.271Z,99437.66
2022-11-24T19:54:24.649Z,99441.22
2022-11-24T19:56:28.745Z,99432.00
2022-11-24T19:58:30.305Z,99438.41
2022-11-24T20:00:32.201Z,99435.38
2022-11-24T20:02:33.830Z,99430.31
2022-11-24T20:04:38.284Z,99433.16
2022-11-24T20:06:43.239Z,99436.78
2022-11-24T20:08:45.299Z,99433.56
2022-11-24T20:10:46.639Z,99433.34
2022-11-24T20:12:48.016Z,99432.53
2022-11-24T20:14:49.434Z,99429.09
2022-11-24T20:16:50.857Z,99438.16
2022-11-24T20:18:54.279Z,99438.97
2022-11-24T20:21:01.730Z,99442.78
2022-11-24T20:23:03.380Z,99434.72
2022-11-24T20:25:05.105Z,99442.34
2022-11-24T20:27:06.762Z,99438.34
2022-11-24T20:29:11.954Z,99439.97
2022-11-24T20:31:15.923Z,99440.16
2022-11-24T20:33:17.411Z,99433.72
2022-11-24T20:35:18.906Z,99443.56
2022-11-24T20:37:20.292Z,99446.41
2022-11-24T20:39:25.360Z,99440.53
2022-11-24T20:41:29.820Z,99441.31
2022-11-24T20:43:31.972Z,99435.88
2022-11-24T20:45:36.623Z,99437.50
2022-11-24T20:47:38.027Z,99435.50
2022-11-24T20:49:39.491Z,99437.09
2022-11-24T20:51:47.362Z,99438.31
2022-11-24T20:53:50.327Z,99433.25
2022-11-24T20:55:51.675Z,99443.94
2022-11-24T20:57:53.024Z,99439.28
2022-11-24T20:59:54.408Z,99437.06
2022-11-24T21:01:55.905Z,99437.47
2022-11-24T21:03:59.358Z,99443.94
2022-11-24T21:06:01.035Z,99434.03
2022-11-24T21:08:02.438Z,99435.28
2022-11-24T21:10:04.169Z,99429.41
2022-11-24T21:12:05.788Z,99434.22
2022-11-24T21:14:08.253Z,99427.78
2022-11-24T21:16:37.394Z,99440.50
2022-11-24T21:18:38.863Z,99430.00
2022-11-24T21:20:40.563Z,99435.28
2022-11-24T21:22:41.922Z,99434.31
2022-11-24T21:24:43.305Z,99433.47
2022-11-24T21:26:51.623Z,99440.13
2022-11-24T21:28:52.958Z,99440.13
2022-11-24T21:30:54.857Z,99440.13
2022-11-24T21:32:56.224Z,99436.09
2022-11-24T21:34:57.680Z,99444.78
2022-11-24T21:36:59.036Z,99439.69
2022-11-24T21:39:01.773Z,99436.47
2022-11-24T21:41:05.787Z,99439.31
2022-11-24T21:43:07.150Z,99438.69
2022-11-24T21:45:11.463Z,99445.19
2022-11-24T21:47:12.930Z,99444.34
2022-11-24T21:49:14.330Z,99442.56
2022-11-24T21:51:17.860Z,99446.59
2022-11-24T21:53:19.278Z,99439.31
2022-11-24T21:55:20.610Z,99436.91
2022-11-24T21:57:23.064Z,99436.47
2022-11-24T21:59:24.544Z,99431.00
2022-11-24T22:01:28.091Z,99426.97
2022-11-24T22:03:29.645Z,99421.31
2022-11-24T22:05:31.011Z,99423.28
2022-11-24T22:07:32.685Z,99419.25
2022-11-24T22:09:34.455Z,99418.84
2022-11-24T22:11:35.810Z,99421.66
2022-11-24T22:13:37.406Z,99418.88
2022-11-24T22:15:38.804Z,99418.06
2022-11-24T22:17:41.270Z,99421.88
2022-11-24T22:19:42.624Z,99416.63
2022-11-24T22:21:44.801Z,99415.41
2022-11-24T22:23:46.311Z,99414.00
2022-11-24T22:25:47.639Z,99416.22
2022-11-24T22:27:49.997Z,99414.00
2022-11-24T22:29:54.253Z,99411.13
2022-11-24T22:31:55.816Z,99415.16
2022-11-24T22:33:58.488Z,99409.16
2022-11-24T22:36:00.936Z,99406.88
2022-11-24T22:38:02.335Z,99410.53
2022-11-24T22:40:03.977Z,99408.72
2022-11-24T22:42:07.281Z,99406.09
2022-11-24T22:44:08.741Z,99404.88
2022-11-24T22:46:21.690Z,99404.25
2022-11-24T22:48:23.244Z,99402.66
2022-11-24T22:50:24.606Z,99403.66
2022-11-24T22:52:25.960Z,99396.78
2022-11-24T22:54:27.330Z,99398.19
2022-11-24T22:56:30.273Z,99398.41
2022-11-24T22:58:32.843Z,99403.84
2022-11-24T23:00:34.230Z,99393.56
2022-11-24T23:02:35.664Z,99399.22
2022-11-24T23:04:37.488Z,99397.19
2022-11-24T23:06:39.027Z,99400.03
2022-11-24T23:08:40.472Z,99406.66
2022-11-24T23:10:41.819Z,99404.44
2022-11-24T23:12:43.181Z,99396.59
2022-11-24T23:14:44.550Z,99400.78
2022-11-24T23:16:45.954Z,99393.97
2022-11-24T23:18:52.402Z,99393.97
2022-11-24T23:20:55.331Z,99390.72
2022-11-24T23:22:57.118Z,99397.22
2022-11-24T23:24:58.474Z,99388.19
2022-11-24T23:26:59.840Z,99387.94
2022-11-24T23:29:01.564Z,99388.75
2022-11-24T23:33:35.258Z,99383.72
2022-11-24T23:35:36.587Z,99392.25
2022-11-24T23:37:59.707Z,99386.00
2022-11-24T23:39:59.336Z,99387.00
2022-11-24T23:42:00.747Z,99387.00
2022-11-24T23:44:02.202Z,99370.28
2022-11-24T23:46:04.787Z,99368.88
2022-11-24T23:48:08.672Z,99364.22
2022-11-24T23:50:10.219Z,99356.78
2022-11-24T23:52:11.645Z,99369.06
2022-11-24T23:54:13.095Z,99368.31
2022-11-24T23:56:17.656Z,99363.44
2022-11-24T23:58:19.018Z,99360.47
